TimeAKDT,TemperatureF,Dew PointF,Humidity,Sea Level PressureIn,VisibilityMPH,Wind Direction,Wind SpeedMPH,Gust SpeedMPH,PrecipitationIn,Events,Conditions,WindDirDegrees,DateUTC
12:53 AM,28.9,26.1,89,30.26,9.0,Calm,Calm,-,0.00,Snow,Light Snow,0,2013-05-08 08:53:00
1:31 AM,28.4,26.6,93,30.26,2.0,SSE,4.6,-,0.00,Snow,Light Snow,150,2013-05-08 09:31:00
1:46 AM,28.4,26.6,93,30.27,9.0,SSW,4.6,-,0.00,,Overcast,200,2013-05-08 09:46:00
1:53 AM,28.0,27.0,96,30.27,10.0,SSW,3.5,-,0.00,,Overcast,200,2013-05-08 09:53:00
2:53 AM,28.0,26.1,92,30.27,10.0,WSW,4.6,-,N/A,,Overcast,250,2013-05-08 10:53:00
3:00 AM,28.4,26.6,93,30.27,10.0,WSW,3.5,-,N/A,,Overcast,250,2013-05-08 11:00:00
3:53 AM,28.0,26.1,92,30.27,10.0,SSW,4.6,-,N/A,,Overcast,210,2013-05-08 11:53:00
4:00 AM,28.4,26.6,93,30.27,10.0,SSW,3.5,-,N/A,,Overcast,210,2013-05-08 12:00:00
4:53 AM,28.9,23.0,78,30.27,10.0,Calm,Calm,-,N/A,,Overcast,0,2013-05-08 12:53:00
5:53 AM,28.0,24.1,85,30.28,10.0,SE,4.6,-,N/A,,Overcast,140,2013-05-08 13:53:00
6:53 AM,28.0,24.1,85,30.28,10.0,ESE,5.8,-,N/A,,Overcast,120,2013-05-08 14:53:00
7:01 AM,28.4,24.8,86,30.28,10.0,SE,5.8,-,N/A,,Overcast,130,2013-05-08 15:01:00
7:53 AM,28.0,25.0,88,30.29,1.8,ESE,4.6,-,0.00,Snow,Light Snow,110,2013-05-08 15:53:00
8:53 AM,28.0,26.1,92,30.30,1.5,ESE,6.9,-,0.01,Snow,Light Snow,120,2013-05-08 16:53:00
9:41 AM,28.4,26.6,93,30.30,1.0,ESE,6.9,-,0.01,Snow,Light Snow,120,2013-05-08 17:41:00
9:53 AM,28.0,26.1,92,30.30,1.0,ESE,9.2,-,0.01,Snow,Light Snow,120,2013-05-08 17:53:00
10:32 AM,28.4,26.6,93,30.30,1.2,ESE,9.2,-,0.00,Snow,Light Snow,120,2013-05-08 18:32:00
10:53 AM,28.0,27.0,96,30.31,1.2,ESE,9.2,-,0.00,Snow,Light Snow,120,2013-05-08 18:53:00
10:58 AM,28.4,26.6,93,30.31,2.5,ESE,9.2,-,0.00,Snow,Light Snow,120,2013-05-08 18:58:00
11:53 AM,28.9,28.0,96,30.32,2.0,SE,8.1,-,0.01,Snow,Light Snow,130,2013-05-08 19:53:00
12:00 PM,28.4,28.4,100,30.31,1.5,ESE,8.1,-,0.00,Snow,Light Snow,120,2013-05-08 20:00:00
12:15 PM,28.4,28.4,100,30.32,2.0,SE,8.1,-,0.00,Snow,Light Snow,130,2013-05-08 20:15:00
12:43 PM,28.4,28.4,100,30.32,1.8,SE,8.1,-,0.00,Snow,Light Snow,130,2013-05-08 20:43:00
12:53 PM,30.0,28.0,92,30.32,2.5,SE,8.1,-,0.00,Snow,Light Snow,140,2013-05-08 20:53:00
1:53 PM,30.0,28.9,96,30.34,2.5,SE,6.9,-,0.00,Snow,Light Snow,140,2013-05-08 21:53:00
2:04 PM,30.2,28.4,93,30.34,4.0,SE,8.1,-,0.00,,Overcast,140,2013-05-08 22:04:00
2:18 PM,30.2,28.4,93,30.34,1.8,SSE,6.9,-,0.00,Snow,Light Snow,150,2013-05-08 22:18:00
2:33 PM,30.2,28.4,93,30.34,1.0,SSE,6.9,-,0.00,Snow,Light Snow,150,2013-05-08 22:33:00
2:39 PM,30.2,28.4,93,30.34,2.0,SSE,8.1,-,0.00,Snow,Light Snow,150,2013-05-08 22:39:00
2:53 PM,30.0,28.9,96,30.35,2.0,SSE,8.1,-,0.00,Snow,Light Snow,150,2013-05-08 22:53:00
3:18 PM,30.2,28.4,93,30.34,1.5,SE,8.1,-,0.00,Snow,Light Snow,140,2013-05-08 23:18:00
3:44 PM,30.2,30.2,100,30.34,1.8,SE,9.2,-,0.00,Snow,Light Snow,140,2013-05-08 23:44:00
3:53 PM,30.9,30.0,96,30.35,1.8,SE,9.2,-,0.00,Snow,Light Snow,140,2013-05-08 23:53:00
4:19 PM,30.2,28.4,93,30.35,1.8,SE,8.1,-,0.00,Snow,Light Snow,140,2013-05-09 00:19:00
4:26 PM,30.2,28.4,93,30.35,2.0,SE,9.2,-,0.00,Snow,Light Snow,140,2013-05-09 00:26:00
4:53 PM,30.9,28.9,92,30.35,6.0,SE,8.1,-,0.00,,Overcast,140,2013-05-09 00:53:00
5:53 PM,30.9,28.9,92,30.35,10.0,SE,8.1,-,N/A,,Overcast,130,2013-05-09 01:53:00
6:53 PM,30.9,28.9,92,30.35,10.0,ESE,8.1,-,N/A,,Overcast,120,2013-05-09 02:53:00
7:53 PM,30.9,28.9,92,30.34,10.0,SE,8.1,-,N/A,,Overcast,130,2013-05-09 03:53:00
8:53 PM,30.9,28.9,92,30.34,10.0,ESE,9.2,-,N/A,,Overcast,120,2013-05-09 04:53:00
9:53 PM,30.9,28.9,92,30.33,10.0,ESE,8.1,-,N/A,,Overcast,120,2013-05-09 05:53:00
10:53 PM,30.9,28.9,92,30.34,10.0,ESE,6.9,-,N/A,,Overcast,120,2013-05-09 06:53:00
11:33 PM,30.2,28.4,93,30.35,10.0,ESE,8.1,-,N/A,,Overcast,120,2013-05-09 07:33:00
11:53 PM,30.9,28.9,92,30.35,10.0,ESE,6.9,-,N/A,,Overcast,120,2013-05-09 07:53:00